createdAt,value
2024-02-29T00:00:54.420Z,9.85
2024-02-29T00:03:21.304Z,9.77
2024-02-29T00:05:47.931Z,9.65
2024-02-29T00:08:14.691Z,9.72
2024-02-29T00:10:41.281Z,9.58
2024-02-29T00:13:07.944Z,9.72
2024-02-29T00:15:34.712Z,10.08
2024-02-29T00:18:01.651Z,10.15
2024-02-29T00:20:28.247Z,10.28
2024-02-29T00:22:54.877Z,10.23
2024-02-29T00:25:21.473Z,10.38
2024-02-29T00:27:48.201Z,10.36
2024-02-29T00:30:17.984Z,10.37
2024-02-29T00:32:44.664Z,10.34
2024-02-29T00:35:11.359Z,10.34
2024-02-29T00:37:38.408Z,10.33
2024-02-29T00:40:05.467Z,10.38
2024-02-29T00:42:32.709Z,10.15
2024-02-29T00:44:59.429Z,10.20
2024-02-29T00:47:26.041Z,10.32
2024-02-29T00:49:52.822Z,10.25
2024-02-29T00:52:19.506Z,10.27
2024-02-29T00:54:46.215Z,10.39
2024-02-29T00:57:13.124Z,10.37
2024-02-29T00:59:39.788Z,10.30
2024-02-29T01:02:06.485Z,10.36
2024-02-29T01:04:33.132Z,10.45
2024-02-29T01:06:59.815Z,10.25
2024-02-29T01:09:28.842Z,10.42
2024-02-29T01:11:55.801Z,10.47
2024-02-29T01:14:22.596Z,10.66
2024-02-29T01:16:49.916Z,10.69
2024-02-29T01:19:16.878Z,10.25
2024-02-29T01:21:43.688Z,10.60
2024-02-29T01:24:10.339Z,10.60
2024-02-29T01:26:37.009Z,10.50
2024-02-29T01:29:03.774Z,10.50
2024-02-29T01:31:30.371Z,10.36
2024-02-29T01:33:57.057Z,10.41
2024-02-29T01:36:23.713Z,10.33
2024-02-29T01:38:50.330Z,10.28
2024-02-29T01:41:19.660Z,10.26
2024-02-29T01:43:55.968Z,10.34
2024-02-29T01:46:24.144Z,10.36
2024-02-29T01:48:51.119Z,10.18
2024-02-29T01:51:19.549Z,10.18
2024-02-29T01:53:46.242Z,10.00
2024-02-29T01:56:16.216Z,9.95
2024-02-29T01:58:43.323Z,9.79
2024-02-29T02:01:11.174Z,9.76
2024-02-29T02:03:39.247Z,9.75
2024-02-29T02:06:06.178Z,9.69
2024-02-29T02:08:33.429Z,9.74
2024-02-29T02:11:01.334Z,9.58
2024-02-29T02:13:28.040Z,9.55
2024-02-29T02:15:54.770Z,9.56
2024-02-29T02:18:21.397Z,9.45
2024-02-29T02:20:48.804Z,9.50
2024-02-29T02:23:15.417Z,9.37
2024-02-29T02:25:42.093Z,9.04
2024-02-29T02:28:08.834Z,9.11
2024-02-29T02:30:35.866Z,9.28
2024-02-29T02:33:02.550Z,9.20
2024-02-29T02:35:29.209Z,9.13
2024-02-29T02:37:55.918Z,8.95
2024-02-29T02:40:22.554Z,9.06
2024-02-29T02:42:49.267Z,9.04
2024-02-29T02:45:16.016Z,8.89
2024-02-29T02:47:42.733Z,8.82
2024-02-29T02:50:10.960Z,8.57
2024-02-29T02:52:37.637Z,8.65
2024-02-29T02:55:05.457Z,8.61
2024-02-29T02:57:32.166Z,8.72
2024-02-29T02:59:59.040Z,8.66
2024-02-29T03:02:25.654Z,8.64
2024-02-29T03:04:52.300Z,8.41
2024-02-29T03:07:19.298Z,8.38
2024-02-29T03:09:47.378Z,8.18
2024-02-29T03:12:14.174Z,8.38
2024-02-29T03:14:40.990Z,8.53
2024-02-29T03:17:07.721Z,8.51
2024-02-29T03:19:34.351Z,8.40
2024-02-29T03:22:01.009Z,8.20
2024-02-29T03:24:27.728Z,8.15
2024-02-29T03:26:54.460Z,8.32
2024-02-29T03:29:21.073Z,8.21
2024-02-29T03:31:49.864Z,8.33
2024-02-29T03:34:17.009Z,8.32
2024-02-29T03:36:43.653Z,8.34
2024-02-29T03:39:11.426Z,8.04
2024-02-29T03:41:38.127Z,8.08
2024-02-29T03:44:04.773Z,8.24
2024-02-29T03:46:31.458Z,8.09
2024-02-29T03:48:58.082Z,8.32
2024-02-29T03:51:24.790Z,8.24
2024-02-29T03:53:51.402Z,8.21
2024-02-29T03:56:18.238Z,7.91
2024-02-29T03:58:45.014Z,7.87
2024-02-29T04:01:11.984Z,7.85
2024-02-29T04:03:41.944Z,7.96
2024-02-29T04:06:08.811Z,7.97
2024-02-29T04:08:36.795Z,7.85
2024-02-29T04:11:03.726Z,7.86
2024-02-29T04:13:32.140Z,7.68
2024-02-29T04:16:03.878Z,7.79
2024-02-29T04:18:30.571Z,7.64
2024-02-29T04:20:57.204Z,7.75
2024-02-29T04:23:23.808Z,7.76
2024-02-29T04:25:50.476Z,7.67
2024-02-29T04:28:18.696Z,7.54
2024-02-29T04:30:45.539Z,7.57
2024-02-29T04:33:15.363Z,7.61
2024-02-29T04:35:42.120Z,7.61
2024-02-29T04:38:08.717Z,7.53
2024-02-29T04:40:35.325Z,7.55
2024-02-29T04:43:02.363Z,7.41
2024-02-29T04:45:29.132Z,7.45
2024-02-29T04:47:55.920Z,7.29
2024-02-29T04:50:22.669Z,7.36
2024-02-29T04:52:49.310Z,7.32
2024-02-29T04:55:16.158Z,7.32
2024-02-29T04:57:42.887Z,7.40
2024-02-29T05:00:11.535Z,7.18
2024-02-29T05:02:38.603Z,7.35
2024-02-29T05:05:07.575Z,7.05
2024-02-29T05:07:35.067Z,7.26
2024-02-29T05:10:02.821Z,7.16
2024-02-29T05:12:29.542Z,7.10
2024-02-29T05:14:56.222Z,7.04
2024-02-29T05:17:22.875Z,7.02
2024-02-29T05:19:49.609Z,6.75
2024-02-29T05:22:16.316Z,6.78
2024-02-29T05:24:42.967Z,6.91
2024-02-29T05:27:09.587Z,6.88
2024-02-29T05:29:36.390Z,7.09
2024-02-29T05:32:03.087Z,6.91
2024-02-29T05:34:29.814Z,7.17
2024-02-29T05:36:56.522Z,7.06
2024-02-29T05:39:23.726Z,7.09
2024-02-29T05:41:50.466Z,7.09
2024-02-29T05:44:17.171Z,7.08
2024-02-29T05:46:44.574Z,6.86
2024-02-29T05:49:11.283Z,6.75
2024-02-29T05:51:38.003Z,6.58
2024-02-29T05:54:04.748Z,6.70
2024-02-29T05:56:31.381Z,6.61
2024-02-29T05:58:58.065Z,6.96
2024-02-29T06:01:24.918Z,6.45
2024-02-29T06:03:51.945Z,6.60
2024-02-29T06:06:18.748Z,6.72
2024-02-29T06:08:45.374Z,6.56
2024-02-29T06:11:15.003Z,6.89
2024-02-29T06:13:42.059Z,6.96
2024-02-29T06:16:08.948Z,6.88
2024-02-29T06:18:37.478Z,6.96
2024-02-29T06:21:05.266Z,7.07
2024-02-29T06:23:32.618Z,6.84
2024-02-29T06:25:59.333Z,6.72
2024-02-29T06:28:25.947Z,6.80
2024-02-29T06:30:52.836Z,6.83
2024-02-29T06:33:19.534Z,6.65
2024-02-29T06:35:46.878Z,6.72
2024-02-29T06:38:13.527Z,6.73
2024-02-29T06:40:40.321Z,6.73
2024-02-29T06:43:07.261Z,6.70
2024-02-29T06:45:33.959Z,6.41
2024-02-29T06:48:00.757Z,6.47
2024-02-29T06:50:27.461Z,6.58
2024-02-29T06:52:55.132Z,6.56
2024-02-29T06:55:22.160Z,6.57
2024-02-29T06:57:49.183Z,6.44
2024-02-29T07:00:19.359Z,6.46
2024-02-29T07:02:45.951Z,6.62
2024-02-29T07:05:12.640Z,6.62
2024-02-29T07:07:39.222Z,6.64
2024-02-29T07:10:08.669Z,6.60
2024-02-29T07:12:35.484Z,6.49
2024-02-29T07:15:03.732Z,6.57
2024-02-29T07:17:30.567Z,6.48
2024-02-29T07:19:57.283Z,6.57
2024-02-29T07:22:24.880Z,6.58
2024-02-29T07:24:51.648Z,6.24
2024-02-29T07:27:18.334Z,6.60
2024-02-29T07:29:44.932Z,6.58
2024-02-29T07:32:11.559Z,6.46
2024-02-29T07:34:38.183Z,6.58
2024-02-29T07:37:04.865Z,6.70
2024-02-29T07:39:31.701Z,6.20
2024-02-29T07:41:58.337Z,6.72
2024-02-29T07:44:26.213Z,6.78
2024-02-29T07:46:52.845Z,6.73
2024-02-29T07:49:19.581Z,6.55
2024-02-29T07:51:46.270Z,6.72
2024-02-29T07:54:13.002Z,6.62
2024-02-29T07:56:42.675Z,7.17
2024-02-29T07:59:09.361Z,7.29
2024-02-29T08:01:36.710Z,7.28
2024-02-29T08:04:03.912Z,7.42
2024-02-29T08:06:30.547Z,7.65
2024-02-29T08:08:57.174Z,8.14
2024-02-29T08:11:24.749Z,8.22
2024-02-29T08:13:51.416Z,7.88
2024-02-29T08:16:18.414Z,8.58
2024-02-29T08:18:45.107Z,8.31
2024-02-29T08:21:11.766Z,8.91
2024-02-29T08:23:38.393Z,8.90
2024-02-29T08:26:11.307Z,8.77
2024-02-29T08:28:39.118Z,8.60
2024-02-29T08:31:09.125Z,8.31
2024-02-29T08:33:36.077Z,8.49
2024-02-29T08:36:03.796Z,9.26
2024-02-29T08:38:30.377Z,9.00
2024-02-29T08:40:56.997Z,9.22
2024-02-29T08:43:25.410Z,9.51
2024-02-29T08:45:53.266Z,9.30
2024-02-29T08:48:19.864Z,9.45
2024-02-29T08:50:48.865Z,9.02
2024-02-29T08:53:16.856Z,8.97
2024-02-29T08:55:43.605Z,9.22
2024-02-29T08:58:11.719Z,9.60
2024-02-29T09:00:38.494Z,9.39
2024-02-29T09:03:05.375Z,9.23
2024-02-29T09:05:32.008Z,9.27
2024-02-29T09:07:58.735Z,9.65
2024-02-29T09:10:25.901Z,9.88
2024-02-29T09:12:52.640Z,9.94
2024-02-29T09:15:19.343Z,9.83
2024-02-29T09:17:46.107Z,9.73
2024-02-29T09:20:12.916Z,9.78
2024-02-29T09:22:39.769Z,9.75
2024-02-29T09:25:08.095Z,9.31
2024-02-29T09:27:34.949Z,9.22
2024-02-29T09:30:01.865Z,9.10
2024-02-29T09:32:28.559Z,9.22
2024-02-29T09:34:55.194Z,9.39
2024-02-29T09:37:21.911Z,9.31
2024-02-29T09:39:48.687Z,9.31
2024-02-29T09:42:15.844Z,9.30
2024-02-29T09:44:46.084Z,9.60
2024-02-29T09:47:14.060Z,9.74
2024-02-29T09:49:41.978Z,9.26
2024-02-29T09:52:09.626Z,9.86
2024-02-29T09:54:40.805Z,9.35
2024-02-29T09:57:13.202Z,9.06
2024-02-29T09:59:43.356Z,9.63
2024-02-29T10:02:16.671Z,9.23
2024-02-29T10:04:43.770Z,9.20
2024-02-29T10:07:10.497Z,9.52
2024-02-29T10:09:37.938Z,9.37
2024-02-29T10:12:05.571Z,9.48
2024-02-29T10:14:32.306Z,9.34
2024-02-29T10:16:59.026Z,9.25
2024-02-29T10:19:26.464Z,9.46
2024-02-29T10:21:53.817Z,9.13
2024-02-29T10:24:24.900Z,9.16
2024-02-29T10:26:52.331Z,9.09
2024-02-29T10:29:19.260Z,9.33
2024-02-29T10:31:46.355Z,9.09
2024-02-29T10:34:13.987Z,9.24
2024-02-29T10:36:41.576Z,8.99
2024-02-29T10:39:10.036Z,9.45
2024-02-29T10:41:39.901Z,9.36
2024-02-29T10:44:09.317Z,9.34
2024-02-29T10:46:41.090Z,9.18
2024-02-29T10:49:17.583Z,9.48
2024-02-29T10:51:49.289Z,9.62
2024-02-29T10:54:25.709Z,9.87
2024-02-29T10:56:54.843Z,9.89
2024-02-29T10:59:21.887Z,9.64
2024-02-29T11:01:48.952Z,9.78
2024-02-29T11:04:16.734Z,10.34
2024-02-29T11:06:47.242Z,10.92
2024-02-29T11:09:19.104Z,10.90
2024-02-29T11:11:48.014Z,10.33
2024-02-29T11:14:18.891Z,10.75
2024-02-29T11:16:49.857Z,10.18
2024-02-29T11:19:19.563Z,10.07
2024-02-29T11:21:46.936Z,10.63
2024-02-29T11:24:23.952Z,10.68
2024-02-29T11:26:57.213Z,10.51
2024-02-29T11:29:24.188Z,10.85
2024-02-29T11:31:52.519Z,10.64
2024-02-29T11:34:22.099Z,10.72
2024-02-29T11:36:53.184Z,10.52
2024-02-29T11:39:22.353Z,10.97
2024-02-29T11:42:02.026Z,10.75
2024-02-29T11:44:28.661Z,10.63
2024-02-29T11:46:58.948Z,10.25
2024-02-29T11:49:27.711Z,10.14
2024-02-29T11:51:56.009Z,10.23
2024-02-29T11:54:25.911Z,9.96
2024-02-29T11:56:55.139Z,10.18
2024-02-29T11:59:21.981Z,10.06
2024-02-29T12:01:48.707Z,10.68
2024-02-29T12:04:16.336Z,10.56
2024-02-29T12:06:45.181Z,10.58
2024-02-29T12:09:16.146Z,10.11
2024-02-29T12:11:46.043Z,10.46
2024-02-29T12:14:13.285Z,10.33
2024-02-29T12:16:45.004Z,10.40
2024-02-29T12:19:14.466Z,10.36
2024-02-29T12:21:41.328Z,10.54
2024-02-29T12:24:08.787Z,10.80
2024-02-29T12:26:36.556Z,11.06
2024-02-29T12:29:03.347Z,10.99
2024-02-29T12:31:30.618Z,10.56
2024-02-29T12:34:01.048Z,10.52
2024-02-29T12:36:28.825Z,10.39
2024-02-29T12:38:56.096Z,10.48
2024-02-29T12:41:25.822Z,10.56
2024-02-29T12:43:55.405Z,10.48
2024-02-29T12:46:22.221Z,10.66
2024-02-29T12:48:48.973Z,10.48
2024-02-29T12:51:15.825Z,10.37
2024-02-29T12:53:42.480Z,10.36
2024-02-29T12:56:09.959Z,10.36
2024-02-29T12:58:36.631Z,10.23
2024-02-29T13:01:06.978Z,10.20
2024-02-29T13:03:34.301Z,10.46
2024-02-29T13:06:01.151Z,10.57
2024-02-29T13:08:27.960Z,10.10
2024-02-29T13:10:54.968Z,9.85
2024-02-29T13:13:21.784Z,10.22
2024-02-29T13:15:48.501Z,10.22
2024-02-29T13:18:15.224Z,9.83
2024-02-29T13:20:41.829Z,10.29
2024-02-29T13:23:09.130Z,10.49
2024-02-29T13:25:37.128Z,10.32
2024-02-29T13:28:05.233Z,10.15
2024-02-29T13:30:34.871Z,9.93
2024-02-29T13:33:01.817Z,10.00
2024-02-29T13:35:28.485Z,9.85
2024-02-29T13:37:55.173Z,9.87
2024-02-29T13:40:21.883Z,9.55
2024-02-29T13:42:51.549Z,9.71
2024-02-29T13:45:18.319Z,9.86
2024-02-29T13:47:53.127Z,10.08
2024-02-29T13:50:21.899Z,10.37
2024-02-29T13:52:49.188Z,10.27
2024-02-29T13:55:16.320Z,10.34
2024-02-29T13:57:43.625Z,9.99
2024-02-29T14:00:11.616Z,10.25
2024-02-29T14:02:38.925Z,10.17
2024-02-29T14:05:08.268Z,9.75
2024-02-29T14:07:35.014Z,9.68
2024-02-29T14:10:04.876Z,9.81
2024-02-29T14:12:34.634Z,9.90
2024-02-29T14:15:01.368Z,9.99
2024-02-29T14:17:28.098Z,9.67
2024-02-29T14:19:54.715Z,9.86
2024-02-29T14:22:21.400Z,9.81
2024-02-29T14:24:50.447Z,10.14
2024-02-29T14:27:17.616Z,10.02
2024-02-29T14:29:44.223Z,9.93
2024-02-29T14:32:10.821Z,10.09
2024-02-29T14:34:37.546Z,10.26
2024-02-29T14:37:04.421Z,10.22
2024-02-29T14:39:31.912Z,10.08
2024-02-29T14:41:58.592Z,9.98
2024-02-29T14:44:25.298Z,10.28
2024-02-29T14:46:54.934Z,9.88
2024-02-29T14:49:21.862Z,9.91
2024-02-29T14:51:48.595Z,9.83
2024-02-29T14:54:15.884Z,9.94
2024-02-29T14:56:44.516Z,9.99
2024-02-29T14:59:12.084Z,9.85
2024-02-29T15:01:39.330Z,9.63
2024-02-29T15:04:06.224Z,9.99
2024-02-29T15:06:33.121Z,10.17
2024-02-29T15:08:59.789Z,9.83
2024-02-29T15:11:27.671Z,9.67
2024-02-29T15:13:55.031Z,9.69
2024-02-29T15:16:21.956Z,9.94
2024-02-29T15:18:56.142Z,10.10
2024-02-29T15:21:22.885Z,10.23
2024-02-29T15:23:49.573Z,10.10
2024-02-29T15:26:16.613Z,10.00
2024-02-29T15:28:49.100Z,9.67
2024-02-29T15:31:16.722Z,9.80
2024-02-29T15:33:43.560Z,9.99
2024-02-29T15:36:10.406Z,9.83
2024-02-29T15:38:37.168Z,9.88
2024-02-29T15:41:03.921Z,9.69
2024-02-29T15:43:31.723Z,9.60
2024-02-29T15:45:58.561Z,10.15
2024-02-29T15:48:25.767Z,10.30
2024-02-29T15:50:52.535Z,9.83
2024-02-29T15:53:19.249Z,9.60
2024-02-29T15:55:48.424Z,9.94
2024-02-29T15:58:16.026Z,9.93
2024-02-29T16:00:42.824Z,10.05
2024-02-29T16:03:09.488Z,10.00
2024-02-29T16:05:36.161Z,9.48
2024-02-29T16:08:03.110Z,9.49
2024-02-29T16:10:30.510Z,9.52
2024-02-29T16:12:59.178Z,9.74
2024-02-29T16:15:26.176Z,9.49
2024-02-29T16:17:53.595Z,9.44
2024-02-29T16:20:21.065Z,9.46
2024-02-29T16:22:48.412Z,9.51
2024-02-29T16:25:15.490Z,9.41
2024-02-29T16:27:42.448Z,9.40
2024-02-29T16:30:09.202Z,9.62
2024-02-29T16:32:35.912Z,9.47
2024-02-29T16:35:02.747Z,9.57
2024-02-29T16:37:29.632Z,9.73
2024-02-29T16:39:56.252Z,9.71
2024-02-29T16:42:22.962Z,9.66
2024-02-29T16:44:49.546Z,9.49
2024-02-29T16:47:16.173Z,9.28
2024-02-29T16:49:44.459Z,9.43
2024-02-29T16:52:13.900Z,9.26
2024-02-29T16:54:40.635Z,9.30
2024-02-29T16:57:07.419Z,9.32
2024-02-29T16:59:35.319Z,9.19
2024-02-29T17:02:02.142Z,9.03
2024-02-29T17:04:28.899Z,9.10
2024-02-29T17:06:55.659Z,8.96
2024-02-29T17:09:22.297Z,9.13
2024-02-29T17:11:48.920Z,9.18
2024-02-29T17:14:15.571Z,9.17
2024-02-29T17:16:42.586Z,9.33
2024-02-29T17:19:09.385Z,9.18
2024-02-29T17:21:37.376Z,9.07
2024-02-29T17:24:07.203Z,8.91
2024-02-29T17:26:35.059Z,8.94
2024-02-29T17:29:01.719Z,8.97
2024-02-29T17:31:28.409Z,8.78
2024-02-29T17:33:55.107Z,8.71
2024-02-29T17:36:21.756Z,8.66
2024-02-29T17:38:48.374Z,8.92
2024-02-29T17:41:15.484Z,8.76
2024-02-29T17:43:42.627Z,8.91
2024-02-29T17:46:09.310Z,8.48
2024-02-29T17:48:36.543Z,8.58
2024-02-29T17:51:04.931Z,8.69
2024-02-29T17:53:31.565Z,8.63
2024-02-29T17:55:58.168Z,8.45
2024-02-29T17:58:27.281Z,8.28
2024-02-29T18:00:56.100Z,8.55
2024-02-29T18:03:24.509Z,8.40
2024-02-29T18:05:51.735Z,8.12
2024-02-29T18:08:18.669Z,8.30
2024-02-29T18:10:45.341Z,8.32
2024-02-29T18:13:11.980Z,8.28
2024-02-29T18:15:40.231Z,8.44
2024-02-29T18:18:07.250Z,8.39
2024-02-29T18:20:33.920Z,8.41
2024-02-29T18:23:03.603Z,8.21
2024-02-29T18:25:32.610Z,8.23
2024-02-29T18:27:59.301Z,8.12
2024-02-29T18:30:25.928Z,8.10
2024-02-29T18:32:55.354Z,8.13
2024-02-29T18:35:22.206Z,8.01
2024-02-29T18:37:48.954Z,8.06
2024-02-29T18:40:15.806Z,8.02
2024-02-29T18:42:43.658Z,8.04
2024-02-29T18:45:10.860Z,8.11
2024-02-29T18:47:37.576Z,7.54
2024-02-29T18:50:06.131Z,7.62
2024-02-29T18:52:32.851Z,7.71
2024-02-29T18:54:59.535Z,7.90
2024-02-29T18:57:26.200Z,7.78
2024-02-29T18:59:52.848Z,7.75
2024-02-29T19:02:19.587Z,7.83
2024-02-29T19:04:51.608Z,7.91
2024-02-29T19:07:19.889Z,7.82
2024-02-29T19:09:47.877Z,7.98
2024-02-29T19:12:14.606Z,7.91
2024-02-29T19:14:43.316Z,7.76
2024-02-29T19:17:13.472Z,7.84
2024-02-29T19:19:40.133Z,7.78
2024-02-29T19:22:06.764Z,7.98
2024-02-29T19:24:33.405Z,7.92
2024-02-29T19:27:00.047Z,7.92
2024-02-29T19:29:27.554Z,7.95
2024-02-29T19:31:55.058Z,7.67
2024-02-29T19:34:21.918Z,7.73
2024-02-29T19:36:49.601Z,7.71
2024-02-29T19:39:16.436Z,7.78
2024-02-29T19:41:44.667Z,7.80
2024-02-29T19:44:14.330Z,7.69
2024-02-29T19:46:45.349Z,7.80
2024-02-29T19:49:12.577Z,7.88
2024-02-29T19:51:44.131Z,7.59
2024-02-29T19:54:13.859Z,7.53
2024-02-29T19:56:41.131Z,7.68
2024-02-29T19:59:08.025Z,7.65
2024-02-29T20:01:34.932Z,7.63
2024-02-29T20:04:01.952Z,7.66
2024-02-29T20:06:28.654Z,7.62
2024-02-29T20:08:55.622Z,7.54
2024-02-29T20:11:22.268Z,7.51
2024-02-29T20:13:48.994Z,7.58
2024-02-29T20:16:16.137Z,7.49
2024-02-29T20:18:42.862Z,7.51
2024-02-29T20:21:09.698Z,7.50
2024-02-29T20:23:36.322Z,7.48
2024-02-29T20:26:02.922Z,7.43
2024-02-29T20:28:29.761Z,7.32
2024-02-29T20:30:56.569Z,7.29
2024-02-29T20:33:23.245Z,7.38
2024-02-29T20:35:49.945Z,7.41
2024-02-29T20:38:16.592Z,7.45
2024-02-29T20:40:43.814Z,7.41
2024-02-29T20:43:10.645Z,7.31
2024-02-29T20:45:37.327Z,7.16
2024-02-29T20:48:04.393Z,7.04
2024-02-29T20:50:31.084Z,7.19
2024-02-29T20:52:57.769Z,7.23
2024-02-29T20:55:24.463Z,7.15
2024-02-29T20:57:51.135Z,6.98
2024-02-29T21:00:18.259Z,7.05
2024-02-29T21:02:44.952Z,6.99
2024-02-29T21:05:11.614Z,6.99
2024-02-29T21:07:41.017Z,6.79
2024-02-29T21:10:10.139Z,6.84
2024-02-29T21:12:36.871Z,6.67
2024-02-29T21:15:04.599Z,6.69
2024-02-29T21:17:31.629Z,6.75
2024-02-29T21:19:59.411Z,6.59
2024-02-29T21:22:27.349Z,6.53
2024-02-29T21:24:54.143Z,6.46
2024-02-29T21:27:20.870Z,6.45
2024-02-29T21:29:48.050Z,6.27
2024-02-29T21:32:14.807Z,6.19
2024-02-29T21:34:47.705Z,6.11
2024-02-29T21:37:14.439Z,6.04
2024-02-29T21:39:45.067Z,6.21
2024-02-29T21:42:12.521Z,6.11
2024-02-29T21:44:42.332Z,6.37
2024-02-29T21:47:09.235Z,6.19
2024-02-29T21:49:35.931Z,6.29
2024-02-29T21:52:02.700Z,6.31
2024-02-29T21:54:31.442Z,6.29
2024-02-29T21:56:58.476Z,6.24
2024-02-29T21:59:25.182Z,6.31
2024-02-29T22:01:52.236Z,6.29
2024-02-29T22:04:19.026Z,6.23
2024-02-29T22:06:46.028Z,6.13
2024-02-29T22:09:12.738Z,6.07
2024-02-29T22:11:39.471Z,6.08
2024-02-29T22:14:06.464Z,6.16
2024-02-29T22:16:33.997Z,6.18
2024-02-29T22:19:00.807Z,6.21
2024-02-29T22:21:29.239Z,6.19
2024-02-29T22:23:56.733Z,6.22
2024-02-29T22:26:26.429Z,6.13
2024-02-29T22:28:53.217Z,6.13
2024-02-29T22:31:20.349Z,6.07
2024-02-29T22:33:47.127Z,6.04
2024-02-29T22:36:13.844Z,5.98
2024-02-29T22:38:40.804Z,5.96
2024-02-29T22:41:07.469Z,5.98
2024-02-29T22:46:01.105Z,5.84
2024-02-29T22:48:27.984Z,5.75
2024-02-29T22:50:54.631Z,5.65
2024-02-29T22:53:22.217Z,5.60
2024-02-29T22:55:51.430Z,5.71
2024-02-29T22:58:19.686Z,5.76
2024-02-29T23:03:19.170Z,5.53
2024-02-29T23:05:45.841Z,5.57
2024-02-29T23:08:12.475Z,5.57
2024-02-29T23:10:41.848Z,5.66
2024-02-29T23:13:08.585Z,5.70
2024-02-29T23:15:35.240Z,5.82
2024-02-29T23:18:02.094Z,5.68
2024-02-29T23:20:28.879Z,5.60
2024-02-29T23:22:57.011Z,5.73
2024-02-29T23:25:25.300Z,5.81
2024-02-29T23:27:52.719Z,5.76
2024-02-29T23:30:20.632Z,5.82
2024-02-29T23:32:47.543Z,5.84
2024-02-29T23:35:17.233Z,5.90
2024-02-29T23:37:43.956Z,5.76
2024-02-29T23:40:11.025Z,5.77
2024-02-29T23:42:37.655Z,5.65
2024-02-29T23:45:05.095Z,5.76
2024-02-29T23:47:32.099Z,5.82
2024-02-29T23:49:58.813Z,5.85
2024-02-29T23:52:25.547Z,5.77
2024-02-29T23:54:52.221Z,5.78
2024-02-29T23:57:18.879Z,5.81
2024-02-29T23:59:45.601Z,5.74
